Date,TemperatureHighF,TemperatureAvgF,TemperatureLowF,DewpointHighF,DewpointAvgF,DewpointLowF,HumidityHigh,HumidityAvg,HumidityLow,PressureMaxIn,PressureMinIn,WindSpeedMaxMPH,WindSpeedAvgMPH,GustSpeedMaxMPH,PrecipitationSumIn
2013-1-1,34,34,34,34,34,33,97,97,97,30.05,30.04,8,7,12,0.00
2013-1-9,57,49,43,47,43,38,97,81,57,30.34,30.15,10,5,16,0.02
2013-1-10,54,49,44,52,46,36,97,90,57,30.25,29.76,21,11,30,0.27
2013-1-11,51,51,50,48,48,47,91,90,89,29.78,29.76,8,7,19,0.00
2013-1-24,35,31,24,26,18,14,70,59,47,30.39,30.13,17,12,29,0.00
2013-1-25,50,36,29,29,26,20,86,69,43,30.23,30.10,12,4,19,0.00
2013-1-26,58,44,30,31,28,26,87,57,32,30.26,30.11,14,7,21,0.00
2013-1-27,58,50,42,54,44,28,90,80,48,30.10,29.84,23,16,33,0.01
2013-1-28,74,67,55,63,60,53,93,79,63,29.86,29.70,22,13,34,0.00
2013-1-29,69,61,44,63,57,42,97,87,78,29.70,29.37,22,12,33,1.02
2013-1-30,44,33,28,43,29,21,97,85,74,29.99,29.37,18,13,35,0.01
2013-1-31,38,25,13,28,19,5,91,76,61,30.44,29.96,13,6,26,0.00
2013-2-1,33,21,8,18,11,2,83,66,49,30.48,30.20,10,5,16,0.00
2013-2-2,51,35,26,36,27,19,81,71,55,30.20,30.14,11,6,21,0.02
2013-2-22,34,27,23,33,23,20,94,84,73,30.08,29.79,10,6,21,0.01
2013-2-23,39,27,18,25,21,15,92,79,56,30.10,29.97,7,1,14,0.05
2013-2-24,53,39,22,37,30,20,89,71,51,30.01,29.85,16,8,23,0.16
2013-2-25,46,36,29,35,31,26,94,81,55,29.90,29.42,21,8,42,0.42
2013-2-26,36,34,33,33,32,32,96,95,92,29.41,29.32,15,7,30,0.04
2013-4-9,75,68,62,65,61,58,86,78,63,29.71,29.62,18,12,26,0.00
2013-4-10,71,52,40,63,50,38,96,91,68,29.78,29.61,14,6,29,0.60
2013-4-11,48,40,36,38,34,32,95,80,60,29.78,29.70,15,10,29,0.00
2013-4-12,43,38,36,34,32,30,89,80,64,29.92,29.75,17,6,27,0.00
2013-4-17,81,67,48,71,61,47,98,83,67,29.95,29.54,20,11,33,0.00
2013-4-18,76,52,40,66,47,32,96,85,70,29.88,29.44,20,12,33,1.10
2013-4-19,53,43,35,36,30,27,78,61,37,30.05,29.88,18,12,37,0.00
2013-4-20,63,48,30,47,37,28,93,69,41,30.19,30.05,8,2,15,0.00
2013-5-12,67,53,36,46,37,31,93,61,31,30.23,30.10,7,1,18,0.00
2013-5-13,79,62,44,60,50,41,91,69,43,30.13,29.95,11,3,19,0.00
2013-5-14,88,75,60,58,54,51,84,52,30,29.94,29.82,8,4,27,0.00
2013-5-15,80,71,62,69,61,53,95,72,58,29.86,29.79,9,4,21,0.17
2013-5-16,68,65,62,64,62,60,97,92,84,29.82,29.76,10,6,18,0.01
2013-5-17,79,69,61,68,64,60,97,83,61,29.85,29.79,4,0,12,0.00
2013-5-18,82,73,63,75,69,60,96,88,77,29.85,29.70,13,6,23,0.00
2013-5-19,74,72,70,71,70,69,96,94,93,29.74,29.70,11,5,20,0.00
2013-5-20,75,68,61,71,65,60,96,90,83,29.76,29.60,12,6,37,1.19
2013-5-21,70,65,61,63,61,57,94,87,72,29.75,29.51,12,4,30,0.00
2013-5-22,71,64,56,59,57,55,95,80,62,29.87,29.68,12,4,23,0.00
2013-5-23,74,64,52,61,56,51,97,79,58,30.10,29.86,9,3,18,0.00
2013-5-24,73,61,48,55,52,47,96,76,50,30.25,30.12,10,5,20,0.00
2013-5-29,80,74,68,70,67,64,91,79,65,29.79,29.66,17,11,28,0.00
2013-5-30,82,70,63,70,65,62,96,85,66,29.74,29.62,21,10,38,1.40
2013-5-31,83,73,65,75,69,64,96,88,75,29.74,29.59,14,9,35,0.73
2013-6-1,75,69,64,66,63,59,97,83,60,29.90,29.61,11,5,24,0.47
2013-6-2,64,60,52,59,56,50,95,86,76,29.99,29.89,7,2,14,0.00
2013-6-3,75,60,46,61,54,45,98,81,55,30.01,29.85,5,2,13,0.01
2013-6-4,74,66,60,68,62,58,94,87,79,29.93,29.84,12,5,21,0.11
2013-6-5,70,65,60,67,63,59,96,93,89,29.90,29.79,7,2,14,0.21
2013-6-6,75,66,58,66,62,56,98,87,66,29.87,29.81,6,2,13,0.02
2013-6-7,76,63,50,62,56,49,98,78,49,29.92,29.84,0,0,1,0.00
2013-6-8,79,66,48,64,57,47,98,75,48,29.89,29.76,7,2,15,0.00
2013-6-9,80,69,60,68,62,59,95,79,51,29.84,29.73,8,3,19,0.38
2013-6-10,91,75,60,75,66,57,92,75,56,29.82,29.74,4,1,14,0.00
2013-6-11,93,80,68,73,69,66,93,72,42,29.88,29.79,6,2,19,0.00
2013-6-12,91,82,70,74,71,68,93,72,52,29.83,29.75,11,5,30,0.00
2013-6-13,87,78,69,73,67,60,88,71,55,29.93,29.78,7,3,18,0.00
2013-6-14,88,76,62,75,69,60,96,79,64,29.95,29.82,11,4,21,0.00
2013-6-15,82,73,67,71,68,66,96,84,67,29.95,29.81,16,6,30,0.24
2013-6-16,89,77,68,77,71,64,97,82,63,29.90,29.81,14,3,30,0.65
2013-6-17,75,70,65,70,67,63,95,90,81,29.91,29.77,15,3,30,0.78
2013-6-18,87,72,59,70,64,58,98,78,49,29.95,29.86,13,1,27,0.00
2013-6-19,87,76,62,70,65,61,96,73,48,29.96,29.88,7,3,13,0.00
2013-6-20,90,79,66,73,69,64,92,74,54,29.98,29.88,13,7,22,0.00
2013-6-21,92,80,72,76,72,69,91,79,58,29.96,29.92,11,8,20,0.00
2013-7-1,79,71,61,63,58,54,92,68,44,29.96,29.88,11,4,21,0.00
2013-7-2,80,67,52,62,56,51,97,71,41,30.01,29.94,11,4,21,0.00
2013-7-3,85,70,53,62,57,51,95,68,39,30.03,29.92,10,2,20,0.00
2013-7-4,85,72,60,64,60,57,89,68,41,29.98,29.89,11,4,18,0.00
2013-7-5,88,75,60,64,61,57,91,64,37,29.95,29.85,10,4,16,0.00
2013-7-6,90,78,66,70,65,60,90,68,38,29.93,29.83,10,5,18,0.00
2013-7-7,93,80,67,70,66,63,90,65,38,29.94,29.87,11,5,21,0.00
2013-7-8,94,81,70,74,69,65,88,69,46,29.99,29.91,9,4,18,0.00
2013-7-9,95,83,71,74,71,68,91,69,46,29.96,29.83,9,3,18,0.00
2013-7-10,97,83,73,78,73,70,93,75,43,29.92,29.81,13,3,25,0.26
2013-7-11,88,78,70,75,69,64,96,75,46,29.93,29.86,8,4,16,0.00
2013-7-12,88,76,66,68,63,60,85,66,40,29.98,29.89,14,6,22,0.00
2013-7-13,84,74,62,68,62,56,85,66,51,29.98,29.87,11,4,18,0.00
2013-7-14,88,74,58,66,62,56,95,68,42,29.98,29.90,11,5,25,0.00
2013-7-15,88,77,64,72,68,61,96,74,53,30.08,29.98,15,7,26,0.00
2013-7-16,91,78,67,75,71,65,96,82,52,30.17,30.08,13,4,31,0.02
2013-7-17,88,76,68,74,70,66,97,86,60,30.23,30.17,6,1,12,0.00
2013-7-21,82,74,69,74,71,68,97,89,76,29.85,29.75,8,2,15,0.17
2013-7-22,86,77,68,74,70,66,97,80,60,29.82,29.72,11,4,21,0.18
2013-7-23,78,75,74,73,70,65,91,86,67,29.78,29.73,6,2,15,0.01
2014-1-2,23,14,5,17,8,1,89,78,54,30.49,30.11,0,0,0,0.00